Flight Track Log - Related Links

Times and Time Zones

All times are in EDT time to prevent confusion due to time zone crossing. See the SWA2147 flight status page for this flight to view local times or setup timezone preferences in your user account.

Time Position Orientation Groundspeed Altitude Reporting Facility
EDT Latitude Longitude Course Direction KTS MPH feet Rate Location/Type
Thu 06:16:35 PM 33.4333 -112.0333 270° West 261 300 2,000  Level Phoenix TRACON
Thu 06:17:11 PM 33.4333 -112.0667 270° West 179 206 3,100 2,125 Climbing Phoenix TRACON
Thu 06:18:11 PM 33.4333 -112.1333 270° West 220 253 5,400 2,479 Climbing Phoenix TRACON
Thu 06:19:12 PM 33.4667 -112.1833 309° West 254 292 8,100 2,457 Climbing Phoenix TRACON
Thu 06:20:18 PM 33.5167 -112.1167 48° Northeast 312 359 10,600 2,118 Climbing Phoenix TRACON
Thu 06:21:28 PM 33.5453 -112.0008 73° East 346 398 12,900 2,227 Climbing Albuquerque Center
Thu 06:22:30 PM 33.5692 -111.8828 76° East 366 421 15,500 2,177 Climbing Albuquerque Center
Thu 06:23:32 PM 33.5933 -111.7581 77° East 384 442 17,400 1,887 Climbing Albuquerque Center
Thu 06:24:34 PM 33.6261 -111.5917 77° East 433 498 19,400 1,984 Climbing Albuquerque Center
Thu 06:25:36 PM 33.6542 -111.4444 77° East 456 525 21,500 1,887 Climbing Albuquerque Center
Thu 06:26:38 PM 33.6828 -111.2931 77° East 468 539 23,300 1,790 Climbing Albuquerque Center
Thu 06:27:40 PM 33.7319 -111.1447 68° East 480 552 25,200 1,694 Climbing Albuquerque Center
Thu 06:28:42 PM 33.7847 -110.9953 67° East 488 562 26,800 1,452 Climbing Albuquerque Center
Thu 06:29:44 PM 33.8511 -110.8081 67° East 503 579 28,200 1,258 Climbing Albuquerque Center
Thu 06:30:46 PM 33.9064 -110.6481 67° East 515 593 29,400 1,210 Climbing Albuquerque Center
Thu 06:31:48 PM 33.9644 -110.4847 67° East 527 606 30,700 1,210 Climbing Albuquerque Center
Thu 06:32:50 PM 34.0272 -110.3072 67° East 533 613 31,900 1,258 Climbing Albuquerque Center
Thu 06:33:52 PM 34.0842 -110.1406 68° East 538 619 33,300 1,258 Climbing Albuquerque Center
Thu 06:34:54 PM 34.1403 -109.9753 68° East 537 618 34,500 829 Climbing Albuquerque Center
Thu 06:35:55 PM 34.2044 -109.7936 67° East 529 609 35,000 293 Climbing Albuquerque Center
Thu 06:36:57 PM 34.2581 -109.6336 68° East 535 616 35,100 677 Climbing Albuquerque Center
Thu 06:37:59 PM 34.3208 -109.4494 68° East 533 613 36,400 919 Climbing Albuquerque Center
Thu 06:39:01 PM 34.3744 -109.2939 67° East 529 609 37,000 194 Climbing Albuquerque Center
Thu 06:41:05 PM 34.4806 -108.9428 70° East 535 616 37,000  Level Albuquerque Center
Thu 06:42:07 PM 34.5333 -108.7508 71° East 537 618 37,000  Level Albuquerque Center
Thu 06:43:09 PM 34.5789 -108.5858 71° East 539 620 37,000  Level Albuquerque Center
Thu 06:44:11 PM 34.6256 -108.4108 72° East 540 621 37,000  Level Albuquerque Center
Thu 06:45:12 PM 34.6725 -108.2372 72° East 542 624 37,000  Level Albuquerque Center
Thu 06:46:14 PM 34.7194 -108.0619 72° East 544 626 37,000  Level Albuquerque Center
Thu 06:47:16 PM 34.7656 -107.8869 72° East 545 627 37,000  Level Albuquerque Center
Thu 06:48:18 PM 34.8211 -107.6786 72° East 542 624 37,000  Level Albuquerque Center
Thu 06:49:20 PM 34.8669 -107.5061 72° East 539 620 37,000  Level Albuquerque Center
Thu 06:50:22 PM 34.9122 -107.3322 72° East 538 619 37,000  Level Albuquerque Center
Thu 06:51:24 PM 34.9603 -107.1464 72° East 539 620 37,000  Level Albuquerque Center
Thu 06:52:26 PM 35.0033 -106.9797 72° East 540 621 37,000  Level Albuquerque Center
Thu 06:53:27 PM 35.0542 -106.7878 72° East 536 617 37,000  Level Albuquerque Center
Thu 06:54:29 PM 35.1158 -106.6281 65° Northeast 542 624 37,000  Level Albuquerque Center
Thu 06:55:31 PM 35.1778 -106.4564 66° East 554 638 37,000  Level Albuquerque Center
Thu 06:56:33 PM 35.2419 -106.2900 65° Northeast 544 626 37,000  Level Albuquerque Center
Thu 06:57:35 PM 35.3211 -106.1064 62° Northeast 530 610 37,000  Level Albuquerque Center
Thu 06:58:37 PM 35.3947 -105.9356 62° Northeast 540 621 37,000  Level Albuquerque Center
Thu 06:59:38 PM 35.4653 -105.7756 62° Northeast 546 628 37,000  Level Albuquerque Center
Thu 07:00:40 PM 35.5333 -105.6117 63° Northeast 538 619 37,000  Level Albuquerque Center
Thu 07:01:42 PM 35.5997 -105.4483 63° Northeast 532 612 37,000  Level Albuquerque Center
Thu 07:02:44 PM 35.6686 -105.2822 63° Northeast 535 616 37,000  Level Albuquerque Center
Thu 07:03:46 PM 35.7350 -105.1186 63° Northeast 532 612 37,000  Level Albuquerque Center
Thu 07:04:47 PM 35.8131 -104.9275 63° Northeast 529 609 37,000  Level Albuquerque Center
Thu 07:05:49 PM 35.8797 -104.7664 63° Northeast 526 605 37,000  Level Albuquerque Center
Thu 07:06:51 PM 35.9486 -104.6006 63° Northeast 531 611 37,000  Level Albuquerque Center
Thu 07:07:53 PM 36.0142 -104.4372 64° Northeast 526 605 37,000  Level Albuquerque Center
Thu 07:08:55 PM 36.0806 -104.2717 64° Northeast 528 608 37,000  Level Albuquerque Center
Thu 07:09:56 PM 36.1475 -104.1067 63° Northeast 531 611 37,000  Level Albuquerque Center
Thu 07:10:58 PM 36.2142 -103.9447 63° Northeast 525 604 37,000  Level Albuquerque Center
Thu 07:12:00 PM 36.2800 -103.7792 64° Northeast 528 608 37,000  Level Albuquerque Center
Thu 07:13:01 PM 36.3450 -103.6119 64° Northeast 531 611 37,000  Level Albuquerque Center
Thu 07:14:03 PM 36.4108 -103.4450 64° Northeast 532 612 37,000  Level Albuquerque Center
Thu 07:15:05 PM 36.4761 -103.2781 64° Northeast 533 613 37,000  Level Albuquerque Center
Thu 07:16:06 PM 36.5497 -103.0861 64° Northeast 525 604 37,000  Level Albuquerque Center
Thu 07:17:08 PM 36.6142 -102.9219 64° Northeast 523 602 37,000  Level Albuquerque Center
Thu 07:18:10 PM 36.6731 -102.7669 65° Northeast 523 602 37,000  Level Albuquerque Center
Thu 07:19:12 PM 36.7439 -102.5842 64° Northeast 525 604 37,000  Level Albuquerque Center
Thu 07:20:13 PM 36.7978 -102.4369 65° Northeast 534 615 37,000  Level Albuquerque Center
Thu 07:21:15 PM 36.8606 -102.2722 64° Northeast 530 610 37,000  Level Albuquerque Center
Thu 07:22:16 PM 36.9331 -102.0842 64° Northeast 533 613 37,000  Level Albuquerque Center
Thu 07:23:18 PM 37.0025 -101.8969 65° Northeast 533 613 37,000  Level Albuquerque Center
Thu 07:24:20 PM 37.0617 -101.7336 66° East 537 618 37,000  Level Albuquerque Center
Thu 07:25:21 PM 37.1219 -101.5742 65° Northeast 535 616 37,000  Level Albuquerque Center
Thu 07:25:53 PM 37.1611 -101.4644 66° East 536 617 37,000  Level Kansas City Center
Thu 07:26:59 PM 37.2203 -101.3025 65° Northeast 536 617 37,000  Level Kansas City Center
Thu 07:27:57 PM 37.2889 -101.1156 65° Northeast 533 613 37,000  Level Kansas City Center
Thu 07:29:01 PM 37.3475 -100.9550 65° Northeast 533 613 37,000  Level Kansas City Center
Thu 07:30:01 PM 37.4147 -100.7675 66° East 533 613 37,000  Level Kansas City Center
Thu 07:31:02 PM 37.4731 -100.6061 65° Northeast 536 617 37,000  Level Kansas City Center
Thu 07:32:06 PM 37.5408 -100.4169 66° East 536 617 37,000  Level Kansas City Center
Thu 07:33:07 PM 37.5981 -100.2539 66° East 536 617 37,000  Level Kansas City Center
Thu 07:34:11 PM 37.6669 -100.0625 65° Northeast 538 619 37,000  Level Kansas City Center
Thu 07:35:12 PM 37.7250 -99.8994 66° East 536 617 37,000  Level Kansas City Center
Thu 07:36:16 PM 37.7908 -99.7072 67° East 534 615 37,000  Level Kansas City Center
Thu 07:37:17 PM 37.8481 -99.5417 66° East 537 618 37,000  Level Kansas City Center
Thu 07:38:17 PM 37.9017 -99.3792 67° East 536 617 37,000  Level Kansas City Center
Thu 07:39:22 PM 37.9736 -99.1700 66° East 538 619 37,000  Level Kansas City Center
Thu 07:40:22 PM 38.0322 -98.9944 67° East 539 620 37,000  Level Kansas City Center
Thu 07:41:23 PM 38.0922 -98.8203 66° East 538 619 37,000  Level Kansas City Center
Thu 07:42:27 PM 38.1528 -98.6439 66° East 543 625 37,000  Level Kansas City Center
Thu 07:43:29 PM 38.2119 -98.4686 67° East 537 618 37,000  Level Kansas City Center
Thu 07:44:30 PM 38.2703 -98.2933 67° East 535 616 37,000  Level Kansas City Center
Thu 07:45:31 PM 38.3278 -98.1161 67° East 536 617 37,000  Level Kansas City Center
Thu 07:46:35 PM 38.3861 -97.9386 67° East 538 619 37,000  Level Kansas City Center
Thu 07:47:36 PM 38.4564 -97.7256 67° East 539 620 37,000  Level Kansas City Center
Thu 07:48:37 PM 38.5133 -97.5464 68° East 541 623 37,000  Level Kansas City Center
Thu 07:49:41 PM 38.5708 -97.3694 67° East 539 620 37,000  Level Kansas City Center
Thu 07:50:41 PM 38.6283 -97.1908 68° East 541 623 37,000  Level Kansas City Center
Thu 07:51:45 PM 38.6844 -97.0122 68° East 541 623 37,000  Level Kansas City Center
Thu 07:52:46 PM 38.7406 -96.8339 68° East 538 619 37,000  Level Kansas City Center
Thu 07:53:50 PM 38.7969 -96.6564 68° East 538 619 37,000  Level Kansas City Center
Thu 07:54:50 PM 38.8611 -96.4475 68° East 541 623 37,000  Level Kansas City Center
Thu 07:55:53 PM 38.9122 -96.2747 69° East 541 623 37,000  Level Kansas City Center
Thu 07:56:55 PM 38.9744 -96.0744 68° East 541 623 37,000  Level Kansas City Center
Thu 07:57:55 PM 39.0281 -95.9017 68° East 542 624 37,000  Level Kansas City Center
Thu 07:59:00 PM 39.0894 -95.6981 69° East 547 629 37,000  Level Kansas City Center
Thu 08:00:00 PM 39.1414 -95.5231 69° East 547 629 37,000  Level Kansas City Center
Thu 08:01:01 PM 39.2017 -95.3208 69° East 543 625 37,000  Level Kansas City Center
Thu 08:02:05 PM 39.2550 -95.1406 69° East 540 621 37,000  Level Kansas City Center
Thu 08:03:07 PM 39.3081 -94.9628 69° East 535 616 37,000  Level Kansas City Center
Thu 08:04:09 PM 39.3586 -94.7911 69° East 538 619 37,000  Level Kansas City Center
Thu 08:05:08 PM 39.4164 -94.5903 70° East 535 616 37,000  Level Kansas City Center
Thu 08:06:12 PM 39.4658 -94.4197 69° East 530 610 37,000  Level Kansas City Center
Thu 08:07:12 PM 39.5239 -94.2172 70° East 536 617 37,000  Level Kansas City Center
Thu 08:08:16 PM 39.5731 -94.0442 70° East 536 617 37,000  Level Kansas City Center
Thu 08:09:16 PM 39.6306 -93.8414 70° East 535 616 37,000  Level Kansas City Center
Thu 08:10:21 PM 39.6833 -93.6514 70° East 539 620 37,000  Level Kansas City Center
Thu 08:11:22 PM 39.7336 -93.4697 70° East 540 621 37,000  Level Kansas City Center
Thu 08:12:24 PM 39.7842 -93.2933 69° East 530 610 37,000  Level Kansas City Center
Thu 08:13:25 PM 39.8328 -93.1147 70° East 531 611 37,000  Level Kansas City Center
Thu 08:14:28 PM 39.8808 -92.9347 71° East 532 612 37,000  Level Kansas City Center
Thu 08:15:29 PM 39.9381 -92.7211 71° East 530 610 37,000  Level Kansas City Center
Thu 08:16:29 PM 39.9861 -92.5431 71° East 533 613 37,000  Level Kansas City Center
Thu 08:17:33 PM 40.0317 -92.3686 71° East 524 603 37,000  Level Kansas City Center
Thu 08:18:34 PM 40.0792 -92.1933 70° East 523 602 37,000  Level Kansas City Center
Thu 08:19:37 PM 40.1336 -91.9792 72° East 524 603 37,000  Level Kansas City Center
Thu 08:20:38 PM 40.1811 -91.8019 71° East 524 603 37,000  Level Kansas City Center
Thu 08:21:38 PM 40.2256 -91.6264 72° East 519 597 37,000 -96 Level Kansas City Center
Thu 08:22:43 PM 40.2703 -91.4500 72° East 517 595 36,800 -1,381 Descending Kansas City Center
Thu 08:23:44 PM 40.3167 -91.2692 71° East 514 592 34,100 -2,607 Descending Kansas City Center
Thu 08:24:45 PM 40.3622 -91.0894 72° East 518 596 31,500 -1,722 Descending Kansas City Center
Thu 08:25:32 PM 40.3978 -90.9489 72° East 511 588 31,000 -275 Descending Chicago Center
Thu 08:26:34 PM 40.4408 -90.7736 72° East 506 582 31,000 -290 Level Chicago Center
Thu 08:27:36 PM 40.4919 -90.5719 72° East 483 556 30,400 -823 Descending Chicago Center
Thu 08:28:38 PM 40.5300 -90.4158 72° East 455 524 29,300 -1,016 Descending Chicago Center
Thu 08:29:40 PM 40.5664 -90.2656 72° East 436 502 28,300 -1,016 Descending Chicago Center
Thu 08:30:42 PM 40.6011 -90.1192 73° East 431 496 27,200 -1,500 Descending Chicago Center
Thu 08:31:44 PM 40.6422 -89.9472 72° East 412 474 25,200 -1,790 Descending Chicago Center
Thu 08:32:46 PM 40.6753 -89.8067 73° East 405 466 23,500 -1,597 Descending Chicago Center
Thu 08:33:48 PM 40.7267 -89.6856 61° Northeast 382 440 21,900 -1,500 Descending Chicago Center
Thu 08:34:50 PM 40.7769 -89.5700 60° Northeast 366 421 20,400 -1,452 Descending Chicago Center
Thu 08:35:52 PM 40.8608 -89.4903 36° Northeast 321 369 18,900 -1,152 Descending Chicago Center
Thu 08:36:55 PM 40.9344 -89.4394 28° Northeast 323 372 18,000 -720 Descending Chicago Center
Thu 08:37:57 PM 40.9725 -89.3203 67° East 352 405 17,400 -823 Descending Chicago Center
Thu 08:38:59 PM 41.0103 -89.2050 66° East 344 396 16,300 -1,016 Descending Chicago Center
Thu 08:40:01 PM 41.0683 -89.1078 52° Northeast 330 380 15,300 -968 Descending Chicago Center
Thu 08:41:03 PM 41.1247 -89.0161 51° Northeast 324 373 14,300 -1,210 Descending Chicago Center
Thu 08:42:05 PM 41.1800 -88.9264 51° Northeast 319 367 12,800 -1,548 Descending Chicago Center
Thu 08:43:07 PM 41.2436 -88.8203 51° Northeast 309 356 11,100 -1,355 Descending Chicago Center
Thu 08:44:09 PM 41.2933 -88.7347 52° Northeast 297 342 10,000 -1,210 Descending Chicago Center
Thu 08:45:11 PM 41.3433 -88.6569 49° Northeast 284 327 8,600 -1,306 Descending Chicago Center
Thu 08:46:13 PM 41.3917 -88.5747 52° Northeast 282 325 7,300 -1,258 Descending Chicago Center
Thu 08:47:15 PM 41.4317 -88.4844 59° Northeast 285 328 6,000 -1,104 Descending Chicago Center
Thu 08:48:18 PM 41.4647 -88.3658 70° East 286 329 5,000 -480 Descending Chicago Center
Thu 08:49:20 PM 41.4933 -88.2700 68° East 282 325 5,000  Level Chicago Center
Thu 08:50:22 PM 41.5217 -88.1756 68° East 277 319 5,000  Level Chicago Center
Thu 08:51:24 PM 41.5508 -88.0800 68° East 275 316 5,000  Level Chicago Center
Thu 08:52:26 PM 41.5575 -87.9783 85° East 275 316 5,000  Level Chicago Center
Thu 08:53:28 PM 41.5608 -87.8778 87° East 272 313 5,000 -532 Level Chicago Center
Thu 08:54:30 PM 41.5650 -87.7783 87° East 270 311 3,900 -823 Descending Chicago Center
Thu 08:55:32 PM 41.5781 -87.6878 79° East 261 300 3,300 -435 Descending Chicago Center
Thu 08:56:34 PM 41.6111 -87.6056 62° Northeast 227 261 3,000 -145 Descending Chicago Center
Thu 08:57:36 PM 41.6522 -87.5986 North 197 227 3,000 -246 Level Chicago Center
Thu 08:58:36 PM 41.7000 -87.6333 332° Northwest 173 199 2,500 -450 Descending Chicago TRACON
Thu 08:59:36 PM 41.7333 -87.6667 323° Northwest 149 171 2,100 -571 Descending Chicago TRACON
Thu 09:00:42 PM 41.7500 -87.7167 294° West 138 159 1,300 -727 Descending Chicago TRACON

Login

Don't have an account? Register now (free) for customized features, flight alerts, and more!